Terminal Aerodrome Forecast
Issued by NWS Jackson, KY

Home | Current Version | Previous Version | Text Only | Print | Product List | Glossary On
Versions: 1 2 3 4 5 6 7 8 9 10 11 12 13 14 15 16 17 18
000
FTUS43 KJKL 152334
TAFJKL
TAF
KJKL 152334Z 1600/1624 00000KT 1SM -RA VV002
     FM160200 00000KT 1SM BR VV002
     FM160600 00000KT 1/4SM FG VV001
     FM161500 00000KT P6SM OVC008
     FM161900 00000KT P6SM BKN010
     FM162300 VRB03KT P6SM BKN060=

USA.gov is the U.S. government's official web portal to all federal, state and local government web resources and services.